Terminal Aerodrome Forecast
Issued by NWS Upton, NY

Home | Current Version | Previous Version | Text Only | Print | Product List | Glossary On
Versions: 1 2 3 4 5 6 7 8 9 10 11 12 13 14 15 16 17 18 19 20 21 22 23 24 25 26 27 28 29 30 31 32 33 34
000
FTUS41 KOKX 180229 AAA
TAFJFK
TAF AMD
KJFK 180229Z 1802/1906 31008KT P6SM SCT250
     FM180500 VRB05KT P6SM BKN200
     FM181400 20012G18KT P6SM SCT150
     FM181800 20016G26KT P6SM VCSH SCT050 BKN100
     FM190000 21020G30KT 5SM -SHRA BR SCT015 BKN025=

USA.gov is the U.S. government's official web portal to all federal, state and local government web resources and services.